Beaver Dam, Texas
Current Conditions -  °F | °C
As of 8:35 PM on Wednesday 22 Oct 2014 (Local Time) from KOSA Reporting Station
Clear Clear  
Wind Chill: 64°   Ceiling: Unl
Heat Index: 64°   Visibility: 10mi
Dew Point: 52°   Wind: 6mph
Humidity: 64%   Direction: 80°E
Pressure: 30.15"   Gusts: NA
Location:  33.4703°N, 94.6281°W
Report Text: KOSA 230135Z AUTO 08005KT 10SM CLR 18/11 A3015 RMK AO1 T01800111
Loading
Personal Weather Stations






























Interactive Weather Map
Tropical Storm Tracking
New forecast layout! Learn more

10-Day Weather Forecast

Advertisements
Track Severe Weather on mobile